Time;durP1;ratioP1;P1;durP2;ratioP2;P2;SDS_P1;SDS_P2;PMS_P1;PMS_P2;Temp;Humidity;BMP_temperature;BMP_pressure;BME280_temperature;BME280_humidity;BME280_pressure;Samples;Min_cycle;Max_cycle;Signal;HPM_P1;HPM_P2
2022/12/16 00:01:20;;;;;;;13.00;7.33;;;;;;;2.94;68.95;100689.37;1748953;81;21089;-72
2022/12/16 00:03:51;;;;;;;14.80;10.88;;;;;;;2.98;69.17;100700.47;1747162;80;21133;-72
2022/12/16 00:06:19;;;;;;;17.15;8.43;;;;;;;2.98;69.17;100706.51;1747491;80;21760;-71
2022/12/16 00:08:45;;;;;;;18.20;11.18;;;;;;;2.96;69.30;100708.80;1749369;81;21094;-71
2022/12/16 00:11:13;;;;;;;20.88;11.78;;;;;;;2.94;69.33;100709.30;1748684;80;21027;-71
2022/12/16 00:13:40;;;;;;;15.58;9.73;;;;;;;2.91;69.41;100707.69;1746913;80;21043;-71
2022/12/16 00:16:11;;;;;;;19.42;10.28;;;;;;;2.86;69.15;100720.47;1748716;80;21137;-71
2022/12/16 00:18:38;;;;;;;19.17;10.72;;;;;;;2.84;69.29;100725.77;1745847;80;22044;-72
2022/12/16 00:21:05;;;;;;;15.78;8.93;;;;;;;2.83;69.41;100731.03;1746437;80;21683;-71
2022/12/16 00:23:32;;;;;;;12.45;7.42;;;;;;;2.85;69.60;100724.00;1746887;80;21038;-71
2022/12/16 00:25:58;;;;;;;15.95;8.93;;;;;;;2.91;69.49;100718.55;1748828;81;21094;-71
2022/12/16 00:28:25;;;;;;;12.07;7.03;;;;;;;3.02;69.37;100715.48;1747667;81;21030;-71
2022/12/16 00:30:53;;;;;;;16.77;9.75;;;;;;;3.10;69.18;100710.33;1729405;81;21241;-71
2022/12/16 00:33:20;;;;;;;17.98;9.68;;;;;;;3.15;69.03;100710.14;1745603;80;21057;-71
2022/12/16 00:35:47;;;;;;;25.68;17.40;;;;;;;3.15;68.99;100714.03;1745441;80;21050;-71
2022/12/16 00:38:14;;;;;;;30.15;18.57;;;;;;;3.11;69.00;100709.43;1746473;80;21070;-71
2022/12/16 01:55:04;;;;;;;18.20;9.65;;;;;;;3.47;68.63;100754.69;1731321;80;21059;-71
2022/12/16 01:57:39;;;;;;;20.77;12.27;;;;;;;3.48;68.52;100757.22;1745841;80;20999;-71
2022/12/16 02:00:09;;;;;;;20.53;11.13;;;;;;;3.55;68.24;100759.09;1753869;80;21039;-71
2022/12/16 02:02:42;;;;;;;;;;;;;;;3.57;68.41;100757.73;1756772;81;21031;-71
2022/12/16 02:05:19;;;;;;;19.95;9.25;;;;;;;3.58;68.50;100754.20;1739320;81;20176;-71
2022/12/16 02:08:01;;;;;;;;;;;;;;;3.58;68.74;100762.00;1757921;80;21143;-71
2022/12/16 02:10:46;;;;;;;18.10;8.43;;;;;;;3.57;68.80;100762.94;1744381;80;20184;-71
2022/12/16 02:13:47;;;;;;;21.62;12.15;;;;;;;3.58;68.98;100773.28;1747946;80;21034;-73
2022/12/16 02:16:45;;;;;;;16.35;9.55;;;;;;;3.54;68.75;100766.03;1750967;80;21050;-71
2022/12/16 02:20:01;;;;;;;22.45;10.32;;;;;;;3.48;68.62;100771.53;1747621;80;21602;-72
2022/12/16 02:22:52;;;;;;;20.43;10.53;;;;;;;3.35;68.51;100771.22;1749690;80;21775;-71
2022/12/16 02:25:36;;;;;;;21.75;10.93;;;;;;;3.31;68.88;100770.98;1749316;80;20995;-71
2022/12/16 02:28:42;;;;;;;18.80;9.05;;;;;;;3.33;68.88;100769.61;1749776;80;21306;-71
2022/12/16 02:31:49;;;;;;;19.73;10.48;;;;;;;3.31;68.83;100774.02;1747563;81;21590;-71
2022/12/16 02:34:27;;;;;;;18.95;8.85;;;;;;;3.33;68.64;100770.91;1647800;86;21112;-71
2022/12/16 02:37:25;;;;;;;18.50;8.80;;;;;;;3.34;68.37;100777.32;1723950;81;21507;-71
2022/12/16 02:39:56;;;;;;;19.07;9.30;;;;;;;3.40;68.58;100775.39;1734872;82;21052;-71
2022/12/16 02:42:32;;;;;;;18.12;10.23;;;;;;;3.45;68.69;100771.66;1747934;81;21058;-71
2022/12/16 02:45:06;;;;;;;17.57;9.38;;;;;;;3.44;68.72;100773.03;1750623;80;21110;-71
2022/12/16 02:47:32;;;;;;;20.35;10.25;;;;;;;3.41;68.88;100768.80;1748005;80;21858;-71
2022/12/16 02:49:59;;;;;;;26.57;18.50;;;;;;;3.40;68.87;100767.12;1743758;80;21108;-70
2022/12/16 02:54:27;;;;;;;15.55;7.85;;;;;;;3.13;69.41;100755.70;1789139;78;22725;-58
2022/12/16 02:57:28;;;;;;;15.75;8.70;;;;;;;3.21;68.81;100761.02;1754541;80;21545;-56
2022/12/16 03:00:08;;;;;;;16.32;8.75;;;;;;;3.12;68.89;100753.17;1748452;80;21248;-58
2022/12/16 03:03:02;;;;;;;15.93;7.75;;;;;;;3.09;69.02;100750.27;1709926;81;21488;-57
2022/12/16 03:05:48;;;;;;;14.85;8.78;;;;;;;3.13;68.81;100745.30;1710496;83;21113;-57
2022/12/16 03:08:22;;;;;;;15.72;8.75;;;;;;;3.08;68.62;100742.06;1710700;81;21077;-58
2022/12/16 03:11:00;;;;;;;12.23;7.85;;;;;;;3.11;68.60;100759.27;1709381;83;21497;-57
2022/12/16 03:13:31;;;;;;;17.87;10.30;;;;;;;3.12;68.60;100757.06;1709138;81;21167;-58
2022/12/16 03:15:57;;;;;;;16.25;8.95;;;;;;;3.08;68.86;100751.16;1691722;82;22537;-57
2022/12/16 03:18:24;;;;;;;20.82;10.48;;;;;;;3.05;68.98;100760.85;1695068;82;21459;-58
2022/12/16 03:21:04;;;;;;;18.82;11.35;;;;;;;3.05;69.26;100755.66;1695190;82;21776;-58
2022/12/16 03:23:57;;;;;;;26.48;18.65;;;;;;;3.05;69.25;100754.34;1699580;82;21609;-58
2022/12/16 03:26:34;;;;;;;15.40;7.30;;;;;;;2.99;69.15;100754.14;1692144;83;21251;-58
2022/12/16 03:29:17;;;;;;;13.30;7.80;;;;;;;2.93;69.04;100759.62;1696052;82;21059;-58
2022/12/16 03:31:57;;;;;;;18.55;10.35;;;;;;;2.85;69.01;100758.63;1696408;82;21094;-58
2022/12/16 03:34:35;;;;;;;15.50;9.73;;;;;;;2.81;68.87;100757.08;1696926;82;21098;-57
2022/12/16 03:37:06;;;;;;;23.55;16.48;;;;;;;2.74;69.01;100753.02;1698450;82;21619;-58
2022/12/16 03:39:39;;;;;;;14.05;7.20;;;;;;;2.77;68.97;100754.20;1700552;82;21160;-58
2022/12/16 03:42:05;;;;;;;16.23;7.62;;;;;;;2.80;68.81;100750.17;1696573;82;22209;-58
2022/12/16 03:44:33;;;;;;;15.40;7.70;;;;;;;2.86;68.74;100748.63;1675184;82;21529;-59
2022/12/16 03:47:00;;;;;;;22.77;16.35;;;;;;;2.91;68.86;100767.94;1671571;82;21073;-59
2022/12/16 03:49:26;;;;;;;17.62;8.20;;;;;;;3.01;68.87;100773.57;1696632;82;21184;-59
2022/12/16 03:51:54;;;;;;;16.60;7.95;;;;;;;3.08;69.15;100770.66;1700109;82;21307;-59
2022/12/16 03:54:20;;;;;;;18.85;10.30;;;;;;;3.09;68.98;100764.56;1679629;82;21076;-57
2022/12/16 03:56:46;;;;;;;52.55;25.48;;;;;;;3.08;68.89;100769.36;1677766;83;21162;-58
2022/12/16 03:59:13;;;;;;;22.95;10.55;;;;;;;3.07;68.94;100774.16;1686916;83;21110;-57
2022/12/16 04:01:40;;;;;;;20.65;11.33;;;;;;;3.06;68.78;100772.48;1690581;83;21083;-58
2022/12/16 04:04:07;;;;;;;26.45;13.13;;;;;;;3.02;68.62;100782.61;1685699;83;21211;-58
2022/12/16 04:06:33;;;;;;;22.42;11.85;;;;;;;3.00;68.47;100779.70;1688594;83;21303;-58
2022/12/16 04:09:00;;;;;;;18.77;10.43;;;;;;;2.88;68.43;100778.00;1685193;83;21397;-58
2022/12/16 04:25:22;;;;;;;20.85;9.90;;;;;;;2.81;68.64;100782.20;1689744;83;21028;-58
2022/12/16 04:27:48;;;;;;;19.82;11.90;;;;;;;2.72;68.75;100783.00;1686568;83;21097;-58
2022/12/16 04:30:20;;;;;;;19.32;9.75;;;;;;;2.66;68.78;100783.70;1689155;83;21260;-57
